createdAt,value
2018-09-01T00:01:27.510Z,13.73
2018-09-01T00:03:56.665Z,13.71
2018-09-01T00:06:25.559Z,13.71
2018-09-01T00:08:54.120Z,13.69
2018-09-01T00:11:24.042Z,13.66
2018-09-01T00:13:52.948Z,13.63
2018-09-01T00:16:22.424Z,13.60
2018-09-01T00:18:53.830Z,13.58
2018-09-01T00:21:23.186Z,13.55
2018-09-01T00:23:52.094Z,13.53
2018-09-01T00:26:21.644Z,13.50
2018-09-01T00:28:50.680Z,13.47
2018-09-01T00:31:20.011Z,13.47
2018-09-01T00:33:48.955Z,13.48
2018-09-01T00:36:17.864Z,13.48
2018-09-01T00:38:52.071Z,13.52
2018-09-01T00:41:21.673Z,13.53
2018-09-01T00:43:52.700Z,13.52
2018-09-01T00:46:21.427Z,13.50
2018-09-01T00:48:51.251Z,13.45
2018-09-01T00:51:21.382Z,13.46
2018-09-01T00:53:51.596Z,13.47
2018-09-01T00:56:20.515Z,13.48
2018-09-01T00:58:49.245Z,13.50
2018-09-01T01:01:18.243Z,13.50
2018-09-01T01:03:48.069Z,13.50
2018-09-01T01:06:16.730Z,13.51
2018-09-01T01:08:47.328Z,13.53
2018-09-01T01:11:17.777Z,13.53
2018-09-01T01:13:46.724Z,13.57
2018-09-01T01:16:15.955Z,13.56
2018-09-01T01:18:44.798Z,13.58
2018-09-01T01:21:13.770Z,13.59
2018-09-01T01:23:42.417Z,13.57
2018-09-01T01:26:11.181Z,13.57
2018-09-01T01:28:40.631Z,13.57
2018-09-01T01:31:09.349Z,13.60
2018-09-01T01:33:38.161Z,13.59
2018-09-01T01:36:07.055Z,13.59
2018-09-01T01:38:35.735Z,13.59
2018-09-01T01:41:04.415Z,13.59
2018-09-01T01:43:33.020Z,13.58
2018-09-01T01:46:02.539Z,13.57
2018-09-01T01:48:31.151Z,13.56
2018-09-01T01:50:59.953Z,13.56
2018-09-01T01:53:29.718Z,13.52
2018-09-01T01:55:58.400Z,13.51
2018-09-01T01:58:27.572Z,13.49
2018-09-01T02:00:56.295Z,13.50
2018-09-01T02:03:25.245Z,13.47
2018-09-01T02:05:53.810Z,13.45
2018-09-01T02:08:23.480Z,13.43
2018-09-01T02:10:53.210Z,13.42
2018-09-01T02:13:24.069Z,13.40
2018-09-01T02:15:52.925Z,13.38
2018-09-01T02:18:22.344Z,13.38
2018-09-01T02:20:51.050Z,13.35
2018-09-01T02:23:20.239Z,13.33
2018-09-01T02:25:48.980Z,13.28
2018-09-01T02:28:17.726Z,13.23
2018-09-01T02:30:46.374Z,13.20
2018-09-01T02:33:15.222Z,13.19
2018-09-01T02:35:46.134Z,13.15
2018-09-01T02:38:14.932Z,13.18
2018-09-01T02:40:44.280Z,13.18
2018-09-01T02:43:13.054Z,13.16
2018-09-01T02:45:42.774Z,13.16
2018-09-01T02:48:12.474Z,13.10
2018-09-01T02:50:41.781Z,13.09
2018-09-01T02:53:11.229Z,13.08
2018-09-01T02:55:40.718Z,13.06
2018-09-01T02:58:09.328Z,13.06
2018-09-01T03:00:38.977Z,13.04
2018-09-01T03:03:08.207Z,13.02
2018-09-01T03:05:37.037Z,13.00
2018-09-01T03:08:05.822Z,13.00
2018-09-01T03:10:34.960Z,12.96
2018-09-01T03:13:03.820Z,12.93
2018-09-01T03:15:32.536Z,12.95
2018-09-01T03:18:01.555Z,12.90
2018-09-01T03:20:30.231Z,12.83
2018-09-01T03:22:59.025Z,12.81
2018-09-01T03:25:28.500Z,12.83
2018-09-01T03:27:58.397Z,12.79
2018-09-01T03:30:27.132Z,12.75
2018-09-01T03:32:55.842Z,12.68
2018-09-01T03:35:24.465Z,12.65
2018-09-01T03:37:53.081Z,12.67
2018-09-01T03:40:22.710Z,12.64
2018-09-01T03:42:51.302Z,12.58
2018-09-01T03:45:20.416Z,12.53
2018-09-01T03:47:51.286Z,12.47
2018-09-01T03:50:20.600Z,12.47
2018-09-01T03:52:50.065Z,12.43
2018-09-01T03:55:19.531Z,12.39
2018-09-01T03:57:48.286Z,12.38
2018-09-01T04:00:17.366Z,12.36
2018-09-01T04:02:46.512Z,12.33
2018-09-01T04:05:15.906Z,12.32
2018-09-01T04:07:44.905Z,12.27
2018-09-01T04:10:13.482Z,12.29
2018-09-01T04:12:44.000Z,12.32
2018-09-01T04:15:14.103Z,12.36
2018-09-01T04:17:43.867Z,12.40
2018-09-01T04:20:12.446Z,12.37
2018-09-01T04:22:41.456Z,12.36
2018-09-01T04:25:10.527Z,12.34
2018-09-01T04:27:39.455Z,12.32
2018-09-01T04:30:09.436Z,12.29
2018-09-01T04:32:38.572Z,12.23
2018-09-01T04:35:07.345Z,12.19
2018-09-01T04:37:37.046Z,12.19
2018-09-01T04:40:06.210Z,12.19
2018-09-01T04:42:35.815Z,12.17
2018-09-01T04:45:04.568Z,12.17
2018-09-01T04:47:33.561Z,12.15
2018-09-01T04:50:02.801Z,12.16
2018-09-01T04:52:32.126Z,12.22
2018-09-01T04:55:01.333Z,12.24
2018-09-01T04:57:30.322Z,12.26
2018-09-01T04:59:59.095Z,12.27
2018-09-01T05:02:29.243Z,12.29
2018-09-01T05:04:58.041Z,12.31
2018-09-01T05:07:26.713Z,12.34
2018-09-01T05:09:55.681Z,12.31
2018-09-01T05:12:24.508Z,12.32
2018-09-01T05:14:53.942Z,12.34
2018-09-01T05:17:22.653Z,12.35
2018-09-01T05:19:51.446Z,12.39
2018-09-01T05:22:20.751Z,12.37
2018-09-01T05:24:49.607Z,12.37
2018-09-01T05:27:18.882Z,12.39
2018-09-01T05:29:48.083Z,12.36
2018-09-01T05:32:17.602Z,12.35
2018-09-01T05:34:46.227Z,12.35
2018-09-01T05:37:16.567Z,12.39
2018-09-01T05:39:45.356Z,12.44
2018-09-01T05:42:14.473Z,12.51
2018-09-01T05:44:43.787Z,12.58
2018-09-01T05:47:12.898Z,12.64
2018-09-01T05:49:42.782Z,12.71
2018-09-01T05:52:14.300Z,12.78
2018-09-01T05:54:44.876Z,12.81
2018-09-01T05:57:13.754Z,12.90
2018-09-01T05:59:42.882Z,12.95
2018-09-01T06:02:12.222Z,12.93
2018-09-01T06:04:40.964Z,12.90
2018-09-01T06:07:09.846Z,12.93
2018-09-01T06:09:39.084Z,12.95
2018-09-01T06:12:08.066Z,13.05
2018-09-01T06:14:37.196Z,13.15
2018-09-01T06:17:06.686Z,13.26
2018-09-01T06:19:36.453Z,13.36
2018-09-01T06:22:05.998Z,13.45
2018-09-01T06:25:59.198Z,13.50
2018-09-01T06:29:05.476Z,13.63
2018-09-01T06:31:35.125Z,13.74
2018-09-01T06:34:03.893Z,13.81
2018-09-01T06:36:32.624Z,13.85
2018-09-01T06:39:01.293Z,13.89
2018-09-01T06:41:31.757Z,13.79
2018-09-01T06:44:01.071Z,13.88
2018-09-01T06:46:29.782Z,13.86
2018-09-01T06:48:59.083Z,13.81
2018-09-01T06:51:28.369Z,13.87
2018-09-01T06:53:57.041Z,13.92
2018-09-01T06:56:25.753Z,13.98
2018-09-01T06:58:54.837Z,14.08
2018-09-01T07:01:23.482Z,14.18
2018-09-01T07:03:53.648Z,14.33
2018-09-01T07:06:22.913Z,14.37
2018-09-01T07:08:51.856Z,14.37
2018-09-01T07:11:20.742Z,14.49
2018-09-01T07:13:49.764Z,14.63
2018-09-01T07:16:18.841Z,14.77
2018-09-01T07:18:47.597Z,14.89
2018-09-01T07:21:17.716Z,14.99
2018-09-01T07:23:46.561Z,15.20
2018-09-01T07:26:15.552Z,15.31
2018-09-01T07:28:44.493Z,15.33
2018-09-01T07:31:13.424Z,15.54
2018-09-01T07:33:42.113Z,15.90
2018-09-01T07:36:10.837Z,16.36
2018-09-01T07:38:39.624Z,16.77
2018-09-01T07:41:08.493Z,17.35
2018-09-01T07:43:38.240Z,17.77
2018-09-01T07:46:07.321Z,17.79
2018-09-01T07:48:36.012Z,17.90
2018-09-01T07:51:06.441Z,17.81
2018-09-01T07:53:35.024Z,18.03
2018-09-01T07:56:04.281Z,18.11
2018-09-01T07:58:32.937Z,18.24
2018-09-01T08:01:01.723Z,18.27
2018-09-01T08:03:30.663Z,18.25
2018-09-01T08:05:59.241Z,18.12
2018-09-01T08:08:29.338Z,18.21
2018-09-01T08:10:58.448Z,18.23
2018-09-01T08:13:30.887Z,18.28
2018-09-01T08:16:00.527Z,18.45
2018-09-01T08:18:30.097Z,18.51
2018-09-01T08:20:59.584Z,18.42
2018-09-01T08:23:28.234Z,18.47
2018-09-01T08:25:56.927Z,18.62
2018-09-01T08:28:26.028Z,18.59
2018-09-01T08:30:54.943Z,18.79
2018-09-01T08:33:23.629Z,18.54
2018-09-01T08:35:53.752Z,18.80
2018-09-01T08:38:22.948Z,18.75
2018-09-01T08:40:53.138Z,18.75
2018-09-01T08:43:22.055Z,18.59
2018-09-01T08:45:51.622Z,18.59
2018-09-01T08:48:22.754Z,18.69
2018-09-01T08:50:51.833Z,19.09
2018-09-01T08:53:20.492Z,19.21
2018-09-01T08:55:49.472Z,19.36
2018-09-01T08:58:18.579Z,19.34
2018-09-01T09:00:47.439Z,19.05
2018-09-01T09:03:16.253Z,18.98
2018-09-01T09:05:45.199Z,18.86
2018-09-01T09:08:13.922Z,18.70
2018-09-01T09:10:42.794Z,18.81
2018-09-01T09:13:12.433Z,18.99
2018-09-01T09:15:41.268Z,19.06
2018-09-01T09:18:10.408Z,19.08
2018-09-01T09:20:39.893Z,19.21
2018-09-01T09:23:08.904Z,19.09
2018-09-01T09:25:38.202Z,19.60
2018-09-01T09:28:07.673Z,19.90
2018-09-01T09:30:36.583Z,20.06
2018-09-01T09:33:06.458Z,20.21
2018-09-01T09:35:35.392Z,20.37
2018-09-01T09:38:04.438Z,20.46
2018-09-01T09:40:33.401Z,20.48
2018-09-01T09:43:02.969Z,20.50
2018-09-01T09:45:31.786Z,20.60
2018-09-01T09:48:01.207Z,19.84
2018-09-01T09:50:30.034Z,19.60
2018-09-01T09:53:00.516Z,19.62
2018-09-01T09:55:29.763Z,19.79
2018-09-01T09:57:58.534Z,19.80
2018-09-01T10:01:05.924Z,19.82
2018-09-01T10:03:36.497Z,19.98
2018-09-01T10:06:05.918Z,20.04
2018-09-01T10:08:34.688Z,20.15
2018-09-01T10:11:04.133Z,20.18
2018-09-01T10:13:33.363Z,20.44
2018-09-01T10:16:02.136Z,20.19
2018-09-01T10:18:32.383Z,20.39
2018-09-01T10:21:01.153Z,20.24
2018-09-01T10:23:31.309Z,20.44
2018-09-01T10:26:00.641Z,20.56
2018-09-01T10:28:29.649Z,20.60
2018-09-01T10:30:58.585Z,20.58
2018-09-01T10:33:28.033Z,20.59
2018-09-01T10:35:57.253Z,20.69
2018-09-01T10:38:26.844Z,20.67
2018-09-01T10:40:55.703Z,20.88
2018-09-01T10:43:25.633Z,20.78
2018-09-01T10:45:55.194Z,20.53
2018-09-01T10:48:24.126Z,20.21
2018-09-01T10:50:52.882Z,19.99
2018-09-01T10:53:21.923Z,20.12
2018-09-01T10:55:51.092Z,20.73
2018-09-01T10:58:20.013Z,21.21
2018-09-01T11:00:48.757Z,21.25
2018-09-01T11:03:17.876Z,20.88
2018-09-01T11:05:47.266Z,20.72
2018-09-01T11:08:16.162Z,20.34
2018-09-01T11:10:46.211Z,20.19
2018-09-01T11:13:14.998Z,20.06
2018-09-01T11:15:43.935Z,20.04
2018-09-01T11:18:13.378Z,20.02
2018-09-01T11:20:42.051Z,20.24
2018-09-01T11:23:10.838Z,20.55
2018-09-01T11:25:41.335Z,20.08
2018-09-01T11:28:10.358Z,20.41
2018-09-01T11:30:39.228Z,20.81
2018-09-01T11:33:08.423Z,21.20
2018-09-01T11:35:37.682Z,21.93
2018-09-01T11:38:06.409Z,22.04
2018-09-01T11:40:35.205Z,21.96
2018-09-01T11:43:04.518Z,21.77
2018-09-01T11:45:33.608Z,21.67
2018-09-01T11:48:02.285Z,21.57
2018-09-01T11:50:31.285Z,21.41
2018-09-01T11:53:00.037Z,21.49
2018-09-01T11:55:28.800Z,20.87
2018-09-01T11:57:57.690Z,21.47
2018-09-01T12:00:26.963Z,22.19
2018-09-01T12:02:56.259Z,22.44
2018-09-01T12:05:25.393Z,22.45
2018-09-01T12:07:54.184Z,22.41
2018-09-01T12:10:23.864Z,22.19
2018-09-01T12:12:53.046Z,22.16
2018-09-01T12:15:23.215Z,22.13
2018-09-01T12:17:51.943Z,21.89
2018-09-01T12:20:20.888Z,21.53
2018-09-01T12:22:50.010Z,21.36
2018-09-01T12:25:18.914Z,21.47
2018-09-01T12:27:48.295Z,21.63
2018-09-01T12:30:17.798Z,21.64
2018-09-01T12:32:46.836Z,21.82
2018-09-01T12:35:15.736Z,21.69
2018-09-01T12:37:44.633Z,21.62
2018-09-01T12:40:14.464Z,21.43
2018-09-01T12:42:44.889Z,21.50
2018-09-01T12:45:13.944Z,21.32
2018-09-01T12:47:42.658Z,21.46
2018-09-01T12:50:11.599Z,21.52
2018-09-01T12:52:40.738Z,21.31
2018-09-01T12:55:09.442Z,21.52
2018-09-01T12:57:38.199Z,21.59
2018-09-01T13:00:07.347Z,21.66
2018-09-01T13:02:36.594Z,21.62
2018-09-01T13:05:05.759Z,21.40
2018-09-01T13:07:34.740Z,21.53
2018-09-01T13:10:03.557Z,21.34
2018-09-01T13:12:32.339Z,21.32
2018-09-01T13:15:01.333Z,21.55
2018-09-01T13:17:31.233Z,21.61
2018-09-01T13:20:00.280Z,22.01
2018-09-01T13:22:30.320Z,21.87
2018-09-01T13:24:59.356Z,21.87
2018-09-01T13:27:28.112Z,21.73
2018-09-01T13:29:56.958Z,21.73
2018-09-01T13:32:26.368Z,21.83
2018-09-01T13:34:55.488Z,22.06
2018-09-01T13:37:24.385Z,22.28
2018-09-01T13:39:53.158Z,22.32
2018-09-01T13:42:22.140Z,22.26
2018-09-01T13:44:52.367Z,22.15
2018-09-01T13:47:21.118Z,22.02
2018-09-01T13:49:50.024Z,21.85
2018-09-01T13:52:18.974Z,21.80
2018-09-01T13:54:47.963Z,21.68
2018-09-01T13:57:16.720Z,21.62
2018-09-01T13:59:45.578Z,21.60
2018-09-01T14:02:14.920Z,21.57
2018-09-01T14:04:43.728Z,21.53
2018-09-01T14:07:12.490Z,21.23
2018-09-01T14:09:41.219Z,21.07
2018-09-01T14:12:10.488Z,21.08
2018-09-01T14:14:44.865Z,21.11
2018-09-01T14:17:14.748Z,21.32
2018-09-01T14:19:44.362Z,21.48
2018-09-01T14:22:13.733Z,21.60
2018-09-01T14:24:42.689Z,21.83
2018-09-01T14:27:12.068Z,21.84
2018-09-01T14:29:40.674Z,21.76
2018-09-01T14:32:10.116Z,21.88
2018-09-01T14:34:38.944Z,21.94
2018-09-01T14:37:09.368Z,21.95
2018-09-01T14:39:38.195Z,21.83
2018-09-01T14:42:08.533Z,21.86
2018-09-01T14:44:37.539Z,21.69
2018-09-01T14:47:06.472Z,21.83
2018-09-01T14:49:35.192Z,21.96
2018-09-01T14:52:05.219Z,21.98
2018-09-01T14:54:34.421Z,21.89
2018-09-01T14:57:03.310Z,21.93
2018-09-01T14:59:32.991Z,21.78
2018-09-01T15:02:01.988Z,21.93
2018-09-01T15:04:31.040Z,21.80
2018-09-01T15:06:59.905Z,21.96
2018-09-01T15:09:28.850Z,22.24
2018-09-01T15:11:58.865Z,22.32
2018-09-01T15:14:27.978Z,22.33
2018-09-01T15:16:56.730Z,22.34
2018-09-01T15:19:25.808Z,22.43
2018-09-01T15:21:54.915Z,22.24
2018-09-01T15:24:24.189Z,21.99
2018-09-01T15:26:54.480Z,22.15
2018-09-01T15:29:23.523Z,22.28
2018-09-01T15:31:52.770Z,22.34
2018-09-01T15:34:22.492Z,22.45
2018-09-01T15:36:52.305Z,22.28
2018-09-01T15:39:22.654Z,22.30
2018-09-01T15:41:51.595Z,22.08
2018-09-01T15:46:48.869Z,21.53
2018-09-01T15:49:18.176Z,21.40
2018-09-01T15:51:47.163Z,21.21
2018-09-01T15:54:16.451Z,21.19
2018-09-01T15:56:45.199Z,21.13
2018-09-01T15:59:14.176Z,21.08
2018-09-01T16:01:43.445Z,21.02
2018-09-01T16:04:13.800Z,20.98
2018-09-01T16:06:42.966Z,20.97
2018-09-01T16:09:12.147Z,20.85
2018-09-01T16:11:41.491Z,20.74
2018-09-01T16:14:10.110Z,20.63
2018-09-01T16:16:38.749Z,20.53
2018-09-01T16:19:07.954Z,20.44
2018-09-01T16:21:37.336Z,20.35
2018-09-01T16:24:06.379Z,20.28
2018-09-01T16:26:35.763Z,20.22
2018-09-01T16:29:05.090Z,20.16
2018-09-01T16:31:36.040Z,19.97
2018-09-01T16:34:04.887Z,19.71
2018-09-01T16:36:34.911Z,19.41
2018-09-01T16:39:05.549Z,19.32
2018-09-01T16:41:37.919Z,19.24
2018-09-01T16:44:08.139Z,19.26
2018-09-01T16:46:38.036Z,19.29
2018-09-01T16:49:07.937Z,19.25
2018-09-01T16:51:38.469Z,19.20
2018-09-01T16:54:07.016Z,19.10
2018-09-01T16:56:36.137Z,19.08
2018-09-01T16:59:06.721Z,19.03
2018-09-01T17:01:35.437Z,18.98
2018-09-01T17:04:04.962Z,18.88
2018-09-01T17:06:33.879Z,18.67
2018-09-01T17:09:03.816Z,18.56
2018-09-01T17:11:34.391Z,18.51
2018-09-01T17:14:02.984Z,18.51
2018-09-01T17:16:31.695Z,18.44
2018-09-01T17:19:01.268Z,18.40
2018-09-01T17:21:30.137Z,18.40
2018-09-01T17:23:59.099Z,18.36
2018-09-01T17:26:31.242Z,18.33
2018-09-01T17:29:00.917Z,18.28
2018-09-01T17:31:30.135Z,18.26
2018-09-01T17:33:59.628Z,18.23
2018-09-01T17:36:28.506Z,18.21
2018-09-01T17:38:58.208Z,18.19
2018-09-01T17:41:27.926Z,18.16
2018-09-01T17:43:57.133Z,18.05
2018-09-01T17:46:26.319Z,17.75
2018-09-01T17:48:55.761Z,17.73
2018-09-01T17:51:26.012Z,17.70
2018-09-01T17:53:55.622Z,17.67
2018-09-01T17:56:25.358Z,17.62
2018-09-01T17:58:55.355Z,17.58
2018-09-01T18:01:26.497Z,17.52
2018-09-01T18:03:55.987Z,17.37
2018-09-01T18:06:26.031Z,17.31
2018-09-01T18:08:55.200Z,17.28
2018-09-01T18:11:23.786Z,17.24
2018-09-01T18:13:53.540Z,17.22
2018-09-01T18:16:22.398Z,17.23
2018-09-01T18:18:51.220Z,17.09
2018-09-01T18:21:20.566Z,17.02
2018-09-01T18:23:49.327Z,16.98
2018-09-01T18:26:18.914Z,16.99
2018-09-01T18:28:47.854Z,16.93
2018-09-01T18:31:16.842Z,16.89
2018-09-01T18:33:45.521Z,16.82
2018-09-01T18:36:14.731Z,16.76
2018-09-01T18:38:43.939Z,16.74
2018-09-01T18:41:13.110Z,16.73
2018-09-01T18:43:42.080Z,16.68
2018-09-01T18:46:11.555Z,16.52
2018-09-01T18:48:40.667Z,16.43
2018-09-01T18:51:09.397Z,16.39
2018-09-01T18:53:38.361Z,16.40
2018-09-01T18:56:07.417Z,16.40
2018-09-01T18:58:37.306Z,16.37
2018-09-01T19:01:07.223Z,16.33
2018-09-01T19:03:37.436Z,16.33
2018-09-01T19:06:07.340Z,16.35
2018-09-01T19:08:36.533Z,16.29
2018-09-01T19:11:05.395Z,16.23
2018-09-01T19:13:35.091Z,16.20
2018-09-01T19:16:03.876Z,16.17
2018-09-01T19:18:33.765Z,16.11
2018-09-01T19:21:02.844Z,16.01
2018-09-01T19:23:31.715Z,16.03
2018-09-01T19:26:00.421Z,16.00
2018-09-01T19:28:29.359Z,16.02
2018-09-01T19:30:58.357Z,15.98
2018-09-01T19:33:28.442Z,15.96
2018-09-01T19:35:59.475Z,15.96
2018-09-01T19:38:28.225Z,15.83
2018-09-01T19:40:57.039Z,15.81
2018-09-01T19:43:27.061Z,15.83
2018-09-01T19:45:56.874Z,15.85
2018-09-01T19:48:26.257Z,15.86
2018-09-01T19:50:55.240Z,15.80
2018-09-01T19:53:24.212Z,15.77
2018-09-01T19:55:53.196Z,15.70
2018-09-01T19:58:22.107Z,15.68
2018-09-01T20:00:51.216Z,15.64
2018-09-01T20:03:20.366Z,15.63
2018-09-01T20:05:49.307Z,15.61
2018-09-01T20:08:19.027Z,15.60
2018-09-01T20:10:48.430Z,15.60
2018-09-01T20:13:17.632Z,15.59
2018-09-01T20:15:46.791Z,15.58
2018-09-01T20:18:17.111Z,15.54
2018-09-01T20:20:46.390Z,15.43
2018-09-01T20:23:16.399Z,15.41
2018-09-01T20:25:46.702Z,15.35
2018-09-01T20:28:15.895Z,15.35
2018-09-01T20:30:46.677Z,15.31
2018-09-01T20:33:16.556Z,15.24
2018-09-01T20:35:51.132Z,15.27
2018-09-01T20:38:20.547Z,15.28
2018-09-01T20:40:50.882Z,15.26
2018-09-01T20:43:19.668Z,15.28
2018-09-01T20:45:48.663Z,15.24
2018-09-01T20:48:17.585Z,15.24
2018-09-01T20:50:46.417Z,15.25
2018-09-01T20:53:15.151Z,15.25
2018-09-01T20:55:43.742Z,15.23
2018-09-01T20:58:12.634Z,15.14
2018-09-01T21:00:41.628Z,15.15
2018-09-01T21:03:10.512Z,15.09
2018-09-01T21:05:39.744Z,15.11
2018-09-01T21:08:08.816Z,15.13
2018-09-01T21:10:39.810Z,15.13
2018-09-01T21:13:09.910Z,15.10
2018-09-01T21:15:40.581Z,15.09
2018-09-01T21:18:09.366Z,15.03
2018-09-01T21:20:38.172Z,15.06
2018-09-01T21:23:07.012Z,15.00
2018-09-01T21:25:35.682Z,14.98
2018-09-01T21:28:04.334Z,14.98
2018-09-01T21:30:33.536Z,14.96
2018-09-01T21:33:03.053Z,14.87
2018-09-01T21:35:31.978Z,14.87
2018-09-01T21:38:00.604Z,14.87
2018-09-01T21:40:30.041Z,14.88
2018-09-01T21:42:59.013Z,14.86
2018-09-01T21:45:28.252Z,14.87
2018-09-01T21:47:57.507Z,14.87
2018-09-01T21:50:27.087Z,14.85
2018-09-01T21:52:55.641Z,14.78
2018-09-01T21:55:25.031Z,14.80
2018-09-01T21:57:54.363Z,14.78
2018-09-01T22:00:24.513Z,14.80
2018-09-01T22:02:53.491Z,14.82
2018-09-01T22:05:25.070Z,14.75
2018-09-01T22:07:53.951Z,14.71
2018-09-01T22:10:24.499Z,14.70
2018-09-01T22:12:53.233Z,14.71
2018-09-01T22:15:22.063Z,14.75
2018-09-01T22:17:50.708Z,14.69
2018-09-01T22:20:20.227Z,14.71
2018-09-01T22:22:50.127Z,14.74
2018-09-01T22:25:19.702Z,14.77
2018-09-01T22:27:48.901Z,14.79
2018-09-01T22:30:18.130Z,14.73
2018-09-01T22:32:46.904Z,14.72
2018-09-01T22:35:15.627Z,14.66
2018-09-01T22:37:44.431Z,14.62
2018-09-01T22:40:13.121Z,14.60
2018-09-01T22:42:42.370Z,14.56
2018-09-01T22:45:12.597Z,14.55
2018-09-01T22:47:41.428Z,14.54
2018-09-01T22:50:11.028Z,14.50
2018-09-01T22:52:39.870Z,14.46
2018-09-01T22:55:08.578Z,14.51
2018-09-01T22:57:37.252Z,14.50
2018-09-01T23:00:06.182Z,14.46
2018-09-01T23:02:35.061Z,14.45
2018-09-01T23:05:03.762Z,14.43
2018-09-01T23:07:32.530Z,14.47
2018-09-01T23:10:01.747Z,14.47
2018-09-01T23:12:30.715Z,14.45
2018-09-01T23:14:59.494Z,14.43
2018-09-01T23:17:28.369Z,14.46
2018-09-01T23:19:57.291Z,14.48
2018-09-01T23:22:25.926Z,14.51
2018-09-01T23:24:54.866Z,14.46
2018-09-01T23:27:23.632Z,14.46
2018-09-01T23:29:52.628Z,14.44
2018-09-01T23:32:22.762Z,14.43
2018-09-01T23:34:51.511Z,14.39
2018-09-01T23:37:21.071Z,14.36
2018-09-01T23:39:50.142Z,14.34
2018-09-01T23:42:19.694Z,14.35
2018-09-01T23:44:48.898Z,14.34
2018-09-01T23:47:18.276Z,14.37
2018-09-01T23:49:47.472Z,14.40
2018-09-01T23:52:16.367Z,14.41
2018-09-01T23:54:44.998Z,14.39
2018-09-01T23:57:14.101Z,14.37
2018-09-01T23:59:43.287Z,14.39
